createdAt,value
2018-09-18T00:00:07.882Z,0.97
2018-09-18T00:02:35.453Z,1.00
2018-09-18T00:05:02.160Z,0.83
2018-09-18T00:07:29.651Z,1.10
2018-09-18T00:09:56.369Z,0.97
2018-09-18T00:12:26.902Z,1.13
2018-09-18T00:14:53.969Z,1.17
2018-09-18T00:17:20.671Z,1.10
2018-09-18T00:19:48.084Z,1.07
2018-09-18T00:22:14.806Z,1.10
2018-09-18T00:24:41.645Z,1.17
2018-09-18T00:27:08.386Z,1.30
2018-09-18T00:29:35.231Z,0.93
2018-09-18T00:32:01.974Z,0.90
2018-09-18T00:34:28.824Z,1.07
2018-09-18T00:36:55.760Z,1.20
2018-09-18T00:39:22.500Z,1.20
2018-09-18T00:41:49.239Z,1.33
2018-09-18T00:44:15.982Z,1.30
2018-09-18T00:46:42.671Z,1.17
2018-09-18T00:49:09.460Z,1.37
2018-09-18T00:51:36.205Z,1.00
2018-09-18T00:54:02.886Z,1.10
2018-09-18T00:56:30.605Z,1.27
2018-09-18T00:58:57.345Z,1.63
2018-09-18T01:01:24.083Z,1.50
2018-09-18T01:03:50.824Z,1.20
2018-09-18T01:06:17.567Z,1.20
2018-09-18T01:08:44.305Z,1.23
2018-09-18T01:11:10.996Z,1.10
2018-09-18T01:13:37.790Z,0.97
2018-09-18T01:16:04.628Z,1.50
2018-09-18T01:18:31.369Z,1.13
2018-09-18T01:20:58.011Z,1.30
2018-09-18T01:23:24.929Z,1.23
2018-09-18T01:25:51.792Z,1.30
2018-09-18T01:28:18.641Z,1.07
2018-09-18T01:30:45.583Z,1.10
2018-09-18T01:33:12.426Z,1.17
2018-09-18T01:35:39.166Z,1.23
2018-09-18T01:38:05.908Z,1.13
2018-09-18T01:40:32.647Z,1.10
2018-09-18T01:42:59.389Z,1.23
2018-09-18T01:45:26.231Z,1.17
2018-09-18T01:47:52.968Z,1.10
2018-09-18T01:50:21.043Z,1.07
2018-09-18T01:52:49.012Z,1.03
2018-09-18T01:55:15.756Z,0.90
2018-09-18T01:57:42.441Z,1.03
2018-09-18T02:00:09.233Z,1.40
2018-09-18T02:02:36.079Z,1.03
2018-09-18T02:05:02.918Z,1.57
2018-09-18T02:07:29.659Z,1.23
2018-09-18T02:09:56.398Z,1.07
2018-09-18T02:12:23.141Z,1.33
2018-09-18T02:14:49.885Z,1.20
2018-09-18T02:17:16.720Z,1.50
2018-09-18T02:19:43.565Z,1.30
2018-09-18T02:22:10.305Z,1.33
2018-09-18T02:24:37.049Z,1.03
2018-09-18T02:27:03.889Z,1.20
2018-09-18T02:29:30.628Z,1.27
2018-09-18T02:31:57.470Z,1.20
2018-09-18T02:34:24.203Z,1.70
2018-09-18T02:36:50.955Z,1.60
2018-09-18T02:39:17.694Z,1.83
2018-09-18T02:41:47.812Z,1.33
2018-09-18T02:44:14.550Z,1.33
2018-09-18T02:46:41.259Z,1.33
2018-09-18T02:49:08.752Z,1.70
2018-09-18T02:51:35.490Z,1.67
2018-09-18T02:54:02.231Z,1.23
2018-09-18T02:56:28.971Z,1.57
2018-09-18T02:58:56.429Z,1.30
2018-09-18T03:01:23.272Z,1.20
2018-09-18T03:03:50.012Z,1.40
2018-09-18T03:06:16.665Z,1.73
2018-09-18T03:08:43.388Z,1.33
2018-09-18T03:11:10.173Z,1.77
2018-09-18T03:13:36.975Z,1.50
2018-09-18T03:16:03.716Z,1.07
2018-09-18T03:18:30.453Z,1.40
2018-09-18T03:20:57.178Z,1.30
2018-09-18T03:23:23.932Z,1.23
2018-09-18T03:25:50.676Z,1.30
2018-09-18T03:28:17.528Z,1.63
2018-09-18T03:30:44.258Z,1.23
2018-09-18T03:33:11.100Z,1.27
2018-09-18T03:35:37.905Z,1.30
2018-09-18T03:38:04.660Z,1.73
2018-09-18T03:40:32.036Z,1.60
2018-09-18T03:42:58.778Z,1.73
2018-09-18T03:45:25.622Z,1.43
2018-09-18T03:47:52.466Z,1.50
2018-09-18T03:50:19.140Z,1.50
2018-09-18T03:52:46.047Z,1.40
2018-09-18T03:55:12.790Z,1.40
2018-09-18T03:57:39.534Z,1.60
2018-09-18T04:00:06.370Z,1.60
2018-09-18T04:02:33.421Z,1.77
2018-09-18T04:05:00.082Z,1.83
2018-09-18T04:07:26.796Z,1.60
2018-09-18T04:09:53.539Z,1.60
2018-09-18T04:12:20.281Z,1.40
2018-09-18T04:14:47.019Z,1.80
2018-09-18T04:17:13.808Z,1.77
2018-09-18T04:19:40.600Z,2.20
2018-09-18T04:22:07.318Z,1.70
2018-09-18T04:24:34.799Z,1.90
2018-09-18T04:27:01.642Z,1.50
2018-09-18T04:29:28.484Z,1.20
2018-09-18T04:31:55.327Z,1.57
2018-09-18T04:34:22.068Z,1.67
2018-09-18T04:36:48.808Z,1.63
2018-09-18T04:39:15.548Z,1.67
2018-09-18T04:41:42.289Z,1.27
2018-09-18T04:44:09.132Z,1.30
2018-09-18T04:46:36.966Z,2.20
2018-09-18T04:49:07.322Z,1.63
2018-09-18T04:51:34.067Z,1.80
2018-09-18T04:54:01.008Z,1.90
2018-09-18T04:56:27.750Z,1.73
2018-09-18T04:58:54.545Z,1.70
2018-09-18T05:01:21.205Z,1.40
2018-09-18T05:03:48.599Z,1.70
2018-09-18T05:06:15.430Z,1.67
2018-09-18T05:08:42.492Z,1.63
2018-09-18T05:11:09.419Z,1.57
2018-09-18T05:13:37.806Z,1.63
2018-09-18T05:16:07.848Z,1.80
2018-09-18T05:18:37.576Z,1.77
2018-09-18T05:21:04.366Z,1.60
2018-09-18T05:23:31.087Z,1.70
2018-09-18T05:25:58.477Z,1.83
2018-09-18T05:28:25.195Z,1.80
2018-09-18T05:30:52.763Z,1.60
2018-09-18T05:33:19.814Z,1.57
2018-09-18T05:35:48.708Z,1.63
2018-09-18T05:38:15.441Z,1.50
2018-09-18T05:40:45.262Z,1.33
2018-09-18T05:43:14.658Z,1.90
2018-09-18T05:45:41.346Z,1.30
2018-09-18T05:48:08.075Z,1.67
2018-09-18T05:50:34.744Z,1.73
2018-09-18T05:53:02.156Z,2.10
2018-09-18T05:55:28.798Z,1.90
2018-09-18T05:57:55.780Z,1.50
2018-09-18T06:00:23.259Z,2.13
2018-09-18T06:02:49.912Z,1.97
2018-09-18T06:05:16.599Z,1.53
2018-09-18T06:07:43.282Z,1.73
2018-09-18T06:10:09.945Z,1.50
2018-09-18T06:12:36.675Z,2.07
2018-09-18T06:15:03.411Z,1.60
2018-09-18T06:17:30.120Z,1.50
2018-09-18T06:19:56.805Z,2.07
2018-09-18T06:22:23.478Z,2.10
2018-09-18T06:24:50.207Z,1.80
2018-09-18T06:27:16.904Z,1.80
2018-09-18T06:29:43.580Z,1.77
2018-09-18T06:32:10.283Z,1.77
2018-09-18T06:34:36.987Z,1.80
2018-09-18T06:37:04.421Z,1.80
2018-09-18T06:39:31.057Z,1.80
2018-09-18T06:41:57.782Z,2.20
2018-09-18T06:44:24.466Z,1.63
2018-09-18T06:46:51.859Z,1.87
2018-09-18T06:49:18.543Z,1.87
2018-09-18T06:51:45.244Z,2.13
2018-09-18T06:54:11.937Z,2.23
2018-09-18T06:56:39.367Z,1.90
2018-09-18T06:59:06.038Z,1.67
2018-09-18T07:01:33.510Z,2.10
2018-09-18T07:04:00.920Z,1.57
2018-09-18T07:06:27.585Z,2.00
2018-09-18T07:08:55.167Z,2.00
2018-09-18T07:11:21.860Z,1.87
2018-09-18T07:13:48.955Z,1.70
2018-09-18T07:16:16.903Z,1.83
2018-09-18T07:18:44.330Z,1.40
2018-09-18T07:21:11.065Z,1.70
2018-09-18T07:23:37.797Z,1.60
2018-09-18T07:26:04.469Z,2.07
2018-09-18T07:28:31.121Z,2.10
2018-09-18T07:30:58.617Z,2.00
2018-09-18T07:33:25.339Z,2.17
2018-09-18T07:35:52.027Z,1.67
2018-09-18T07:38:18.719Z,1.87
2018-09-18T07:40:45.419Z,1.83
2018-09-18T07:43:12.086Z,2.20
2018-09-18T07:45:39.493Z,1.83
2018-09-18T07:48:06.147Z,1.70
2018-09-18T07:50:32.935Z,1.60
2018-09-18T07:52:59.679Z,1.80
2018-09-18T07:55:26.364Z,1.70
2018-09-18T07:57:53.017Z,1.80
2018-09-18T08:00:20.464Z,1.90
2018-09-18T08:02:47.290Z,2.30
2018-09-18T08:05:14.702Z,2.30
2018-09-18T08:07:41.402Z,2.00
2018-09-18T08:10:08.184Z,2.20
2018-09-18T08:12:34.833Z,1.73
2018-09-18T08:15:01.545Z,1.80
2018-09-18T08:17:29.074Z,2.20
2018-09-18T08:19:55.739Z,2.20
2018-09-18T08:22:23.109Z,1.90
2018-09-18T08:24:49.775Z,2.23
2018-09-18T08:27:16.470Z,2.00
2018-09-18T08:29:43.892Z,2.47
2018-09-18T08:32:10.550Z,2.20
2018-09-18T08:34:37.271Z,2.33
2018-09-18T08:37:04.109Z,1.80
2018-09-18T08:42:23.931Z,2.53
2018-09-18T08:44:51.353Z,2.20
2018-09-18T08:47:18.043Z,1.80
2018-09-18T08:49:44.790Z,2.27
2018-09-18T08:52:12.235Z,2.20
2018-09-18T08:54:39.649Z,2.37
2018-09-18T08:57:06.465Z,2.03
2018-09-18T08:59:33.122Z,2.10
2018-09-18T09:01:59.859Z,2.10
2018-09-18T09:04:26.602Z,1.83
2018-09-18T09:06:53.296Z,2.90
2018-09-18T09:09:20.806Z,2.93
2018-09-18T09:11:48.130Z,2.67
2018-09-18T09:14:14.827Z,2.37
2018-09-18T09:16:41.492Z,4.53
2018-09-18T09:19:08.916Z,2.77
2018-09-18T09:21:35.626Z,2.73
2018-09-18T09:24:02.310Z,4.00
2018-09-18T09:26:29.101Z,3.83
2018-09-18T09:28:56.487Z,2.67
2018-09-18T09:31:23.192Z,9.17
2018-09-18T09:33:49.906Z,7.10
2018-09-18T09:36:16.593Z,17.10
2018-09-18T09:38:43.428Z,11.00
2018-09-18T09:41:10.836Z,7.27
2018-09-18T09:43:38.265Z,24.67
2018-09-18T09:46:05.094Z,23.27
2018-09-18T09:48:31.814Z,4.95
2018-09-18T09:50:58.517Z,2.70
2018-09-18T09:53:25.275Z,2.80
2018-09-18T09:55:51.905Z,4.28
2018-09-18T09:58:19.288Z,2.17
2018-09-18T10:00:46.105Z,4.00
2018-09-18T10:03:12.759Z,2.25
2018-09-18T10:05:39.435Z,3.10
2018-09-18T10:08:06.929Z,2.47
2018-09-18T10:10:34.400Z,2.40
2018-09-18T10:13:01.838Z,2.05
2018-09-18T10:15:28.568Z,2.10
2018-09-18T10:17:56.129Z,2.22
2018-09-18T10:20:22.698Z,2.15
2018-09-18T10:22:49.518Z,3.50
2018-09-18T10:25:16.262Z,2.20
2018-09-18T10:27:43.672Z,2.00
2018-09-18T10:30:10.365Z,2.00
2018-09-18T10:32:37.122Z,2.17
2018-09-18T10:35:03.857Z,2.50
2018-09-18T10:37:30.548Z,2.08
2018-09-18T10:39:57.253Z,2.10
2018-09-18T10:42:23.962Z,4.20
2018-09-18T10:44:51.411Z,2.17
2018-09-18T10:47:18.904Z,2.42
2018-09-18T10:49:45.594Z,2.60
2018-09-18T10:52:13.045Z,2.00
2018-09-18T10:54:39.737Z,2.40
2018-09-18T10:57:06.419Z,2.67
2018-09-18T10:59:33.114Z,2.60
2018-09-18T11:01:59.831Z,2.08
2018-09-18T11:04:27.254Z,2.50
2018-09-18T11:06:53.931Z,2.28
2018-09-18T11:09:20.677Z,2.37
2018-09-18T11:11:47.376Z,2.50
2018-09-18T11:14:14.081Z,2.30
2018-09-18T11:16:40.727Z,2.33
2018-09-18T11:19:07.487Z,2.37
2018-09-18T11:21:34.255Z,2.47
2018-09-18T11:24:01.117Z,2.00
2018-09-18T11:26:27.762Z,2.00
2018-09-18T11:28:54.458Z,2.37
2018-09-18T11:31:21.263Z,2.12
2018-09-18T11:33:47.911Z,2.45
2018-09-18T11:36:14.640Z,2.03
2018-09-18T11:38:41.316Z,2.03
2018-09-18T11:41:08.024Z,1.95
2018-09-18T11:43:34.708Z,2.20
2018-09-18T11:46:02.284Z,2.10
2018-09-18T11:48:28.823Z,2.28
2018-09-18T11:50:55.675Z,2.08
2018-09-18T11:53:22.359Z,1.95
2018-09-18T11:55:49.061Z,2.40
2018-09-18T11:58:16.211Z,2.25
2018-09-18T12:00:42.945Z,1.87
2018-09-18T12:03:09.713Z,2.50
2018-09-18T12:05:37.191Z,1.90
2018-09-18T12:08:03.930Z,2.08
2018-09-18T12:10:30.627Z,1.95
2018-09-18T12:12:57.453Z,13.57
2018-09-18T12:15:24.135Z,2.47
2018-09-18T12:17:51.578Z,2.10
2018-09-18T12:20:18.279Z,2.10
2018-09-18T12:22:49.072Z,2.10
2018-09-18T12:25:16.188Z,2.37
2018-09-18T12:27:44.164Z,2.08
2018-09-18T12:30:10.846Z,2.17
2018-09-18T12:32:38.196Z,2.22
2018-09-18T12:35:05.976Z,1.90
2018-09-18T12:37:32.713Z,2.20
2018-09-18T12:40:00.205Z,2.10
2018-09-18T12:42:26.979Z,2.25
2018-09-18T12:44:53.643Z,1.92
2018-09-18T12:47:20.340Z,2.30
2018-09-18T12:49:47.198Z,2.12
2018-09-18T12:52:13.825Z,2.70
2018-09-18T12:54:41.490Z,2.20
2018-09-18T12:57:09.836Z,3.37
2018-09-18T12:59:36.929Z,2.22
2018-09-18T13:02:04.502Z,2.50
2018-09-18T13:04:31.230Z,2.10
2018-09-18T13:06:58.009Z,2.50
2018-09-18T13:09:25.589Z,2.20
2018-09-18T13:11:52.270Z,2.05
2018-09-18T13:14:19.097Z,2.50
2018-09-18T13:16:45.905Z,2.22
2018-09-18T13:19:12.753Z,2.40
2018-09-18T13:21:39.512Z,2.30
2018-09-18T13:24:06.296Z,2.53
2018-09-18T13:26:33.014Z,2.20
2018-09-18T13:28:59.676Z,2.10
2018-09-18T13:31:26.511Z,2.37
2018-09-18T13:33:53.940Z,2.55
2018-09-18T13:36:20.610Z,2.37
2018-09-18T13:38:47.373Z,1.80
2018-09-18T13:41:14.821Z,2.25
2018-09-18T13:43:42.272Z,2.15
2018-09-18T13:46:08.967Z,2.30
2018-09-18T13:48:35.680Z,2.42
2018-09-18T13:51:02.446Z,2.40
2018-09-18T13:53:29.128Z,2.33
2018-09-18T13:55:56.035Z,2.42
2018-09-18T13:58:22.719Z,2.30
2018-09-18T14:00:49.379Z,2.55
2018-09-18T14:03:16.812Z,2.20
2018-09-18T14:05:43.547Z,2.17
2018-09-18T14:08:10.273Z,2.40
2018-09-18T14:10:36.982Z,2.28
2018-09-18T14:13:03.715Z,2.47
2018-09-18T14:15:30.385Z,2.22
2018-09-18T14:17:57.275Z,2.20
2018-09-18T14:20:24.725Z,2.28
2018-09-18T14:22:52.139Z,2.37
2018-09-18T14:25:18.841Z,2.25
2018-09-18T14:27:46.258Z,2.10
2018-09-18T14:30:12.934Z,2.35
2018-09-18T14:32:39.713Z,2.30
2018-09-18T14:35:06.426Z,2.22
2018-09-18T14:37:33.056Z,2.05
2018-09-18T14:39:59.751Z,2.37
2018-09-18T14:42:26.411Z,2.62
2018-09-18T14:44:54.020Z,2.10
2018-09-18T14:47:20.714Z,2.28
2018-09-18T14:49:47.455Z,2.00
2018-09-18T14:52:15.001Z,2.30
2018-09-18T14:54:41.665Z,2.50
2018-09-18T14:57:09.073Z,2.40
2018-09-18T14:59:36.056Z,2.75
2018-09-18T15:02:03.525Z,2.45
2018-09-18T15:04:30.244Z,2.55
2018-09-18T15:06:57.124Z,2.50
2018-09-18T15:09:23.823Z,2.45
2018-09-18T15:11:50.482Z,2.78
2018-09-18T15:14:18.056Z,2.60
2018-09-18T15:16:44.763Z,2.62
2018-09-18T15:19:11.431Z,2.30
2018-09-18T15:21:38.158Z,2.80
2018-09-18T15:24:04.855Z,2.40
2018-09-18T15:26:31.537Z,2.50
2018-09-18T15:28:59.024Z,2.90
2018-09-18T15:31:25.870Z,2.70
2018-09-18T15:33:56.339Z,2.65
2018-09-18T15:36:23.025Z,2.70
2018-09-18T15:38:49.714Z,2.70
2018-09-18T15:41:16.511Z,2.45
2018-09-18T15:43:43.546Z,2.92
2018-09-18T15:46:10.936Z,2.70
2018-09-18T15:48:40.137Z,2.75
2018-09-18T15:51:08.281Z,2.85
2018-09-18T15:53:35.590Z,2.50
2018-09-18T15:56:03.178Z,2.60
2018-09-18T15:58:30.565Z,2.67
2018-09-18T16:00:57.263Z,2.65
2018-09-18T16:03:24.709Z,2.72
2018-09-18T16:05:51.443Z,2.42
2018-09-18T16:08:18.126Z,2.67
2018-09-18T16:10:44.811Z,2.58
2018-09-18T16:13:11.496Z,2.83
2018-09-18T16:15:38.200Z,2.90
2018-09-18T16:18:04.900Z,3.00
2018-09-18T16:20:31.574Z,3.20
2018-09-18T16:22:58.345Z,2.75
2018-09-18T16:25:25.209Z,3.12
2018-09-18T16:27:52.144Z,2.97
2018-09-18T16:30:18.995Z,3.03
2018-09-18T16:32:45.785Z,3.33
2018-09-18T16:35:12.471Z,3.17
2018-09-18T16:37:39.097Z,2.95
2018-09-18T16:40:06.541Z,3.05
2018-09-18T16:42:33.763Z,2.95
2018-09-18T16:45:00.548Z,3.30
2018-09-18T16:47:27.330Z,3.20
2018-09-18T16:49:55.337Z,2.95
2018-09-18T16:52:22.839Z,3.42
2018-09-18T16:54:49.782Z,3.15
2018-09-18T16:57:17.142Z,3.25
2018-09-18T16:59:44.599Z,3.30
2018-09-18T17:02:11.314Z,3.00
2018-09-18T17:04:38.061Z,3.30
2018-09-18T17:07:05.027Z,3.12
2018-09-18T17:09:31.725Z,3.17
2018-09-18T17:11:58.401Z,2.83
2018-09-18T17:14:25.055Z,3.37
2018-09-18T17:16:51.818Z,3.22
2018-09-18T17:19:18.646Z,2.90
2018-09-18T17:21:45.394Z,3.58
2018-09-18T17:24:12.195Z,3.25
2018-09-18T17:26:38.959Z,3.40
2018-09-18T17:29:05.822Z,3.00
2018-09-18T17:31:32.533Z,3.62
2018-09-18T17:33:59.311Z,3.40
2018-09-18T17:36:25.964Z,3.20
2018-09-18T17:38:52.640Z,3.45
2018-09-18T17:41:20.030Z,2.90
2018-09-18T17:43:47.564Z,3.20
2018-09-18T17:46:14.939Z,3.13
2018-09-18T17:48:41.651Z,3.20
2018-09-18T17:51:08.486Z,3.30
2018-09-18T17:53:35.201Z,3.03
2018-09-18T17:56:02.636Z,3.20
2018-09-18T17:58:30.155Z,3.30
2018-09-18T18:00:56.836Z,3.27
2018-09-18T18:03:23.494Z,3.20
2018-09-18T18:06:05.224Z,2.87
2018-09-18T18:08:31.867Z,3.30
2018-09-18T18:10:58.621Z,3.23
2018-09-18T18:13:25.419Z,3.10
2018-09-18T18:15:52.829Z,2.87
2018-09-18T18:18:19.547Z,3.20
2018-09-18T18:20:46.232Z,3.10
2018-09-18T18:23:13.722Z,3.00
2018-09-18T18:25:41.156Z,3.10
2018-09-18T18:28:07.823Z,2.97
2018-09-18T18:30:34.505Z,3.20
2018-09-18T18:33:01.326Z,2.97
2018-09-18T18:35:27.999Z,3.10
2018-09-18T18:37:55.539Z,3.10
2018-09-18T18:40:22.262Z,3.30
2018-09-18T18:42:49.913Z,3.20
2018-09-18T18:45:17.403Z,2.87
2018-09-18T18:47:47.328Z,3.20
2018-09-18T18:50:14.016Z,2.97
2018-09-18T18:52:41.887Z,3.10
2018-09-18T18:55:08.686Z,3.20
2018-09-18T18:57:35.612Z,3.07
2018-09-18T19:00:02.306Z,3.00
2018-09-18T19:02:30.848Z,3.30
2018-09-18T19:04:57.876Z,3.27
2018-09-18T19:07:24.685Z,2.97
2018-09-18T19:09:52.768Z,3.10
2018-09-18T19:12:20.363Z,3.13
2018-09-18T19:14:47.031Z,2.93
2018-09-18T19:17:13.807Z,2.60
2018-09-18T19:19:40.754Z,2.90
2018-09-18T19:22:07.699Z,3.10
2018-09-18T19:24:34.581Z,2.87
2018-09-18T19:27:01.589Z,2.90
2018-09-18T19:29:28.307Z,2.60
2018-09-18T19:31:55.766Z,2.87
2018-09-18T19:34:23.238Z,2.80
2018-09-18T19:36:49.888Z,2.70
2018-09-18T19:39:16.804Z,2.80
2018-09-18T19:41:43.671Z,2.90
2018-09-18T19:44:10.419Z,2.90
2018-09-18T19:46:37.259Z,2.57
2018-09-18T19:49:04.095Z,3.03
2018-09-18T19:51:31.148Z,2.90
2018-09-18T19:53:57.990Z,2.70
2018-09-18T19:56:24.731Z,2.80
2018-09-18T19:58:51.688Z,2.73
2018-09-18T20:01:18.420Z,2.53
2018-09-18T20:03:45.157Z,2.77
2018-09-18T20:06:12.101Z,2.60
2018-09-18T20:08:39.251Z,2.73
2018-09-18T20:11:06.073Z,2.90
2018-09-18T20:13:33.553Z,2.77
2018-09-18T20:16:01.125Z,3.03
2018-09-18T20:18:28.054Z,3.00
2018-09-18T20:20:55.916Z,2.50
2018-09-18T20:23:22.665Z,2.83
2018-09-18T20:25:49.400Z,2.77
2018-09-18T20:28:16.245Z,2.70
2018-09-18T20:30:42.963Z,3.00
2018-09-18T20:33:09.830Z,2.50
2018-09-18T20:35:36.627Z,2.47
2018-09-18T20:38:03.516Z,2.60
2018-09-18T20:40:30.254Z,2.60
2018-09-18T20:42:57.100Z,2.30
2018-09-18T20:45:23.812Z,2.53
2018-09-18T20:47:50.574Z,2.47
2018-09-18T20:50:17.314Z,2.53
2018-09-18T20:52:44.162Z,2.70
2018-09-18T20:55:11.006Z,2.50
2018-09-18T20:57:37.642Z,2.40
2018-09-18T21:00:04.450Z,2.40
2018-09-18T21:02:31.072Z,2.53
2018-09-18T21:04:57.863Z,2.80
2018-09-18T21:07:24.593Z,2.23
2018-09-18T21:09:51.346Z,2.33
2018-09-18T21:12:18.085Z,2.73
2018-09-18T21:14:44.825Z,2.77
2018-09-18T21:19:53.241Z,2.77
2018-09-18T21:22:19.997Z,2.90
2018-09-18T21:24:46.839Z,2.63
2018-09-18T21:27:13.555Z,2.70
2018-09-18T21:29:41.037Z,2.40
2018-09-18T21:32:07.774Z,2.60
2018-09-18T21:34:34.518Z,2.77
2018-09-18T21:37:01.360Z,3.00
2018-09-18T21:39:28.102Z,2.70
2018-09-18T21:41:54.817Z,3.03
2018-09-18T21:44:22.398Z,2.90
2018-09-18T21:46:49.147Z,2.70
2018-09-18T21:49:15.885Z,3.17
2018-09-18T21:51:57.550Z,2.70
2018-09-18T21:54:25.153Z,3.00
2018-09-18T21:56:51.871Z,2.73
2018-09-18T21:59:18.590Z,2.73
2018-09-18T22:01:45.311Z,3.10
2018-09-18T22:04:12.196Z,2.80
2018-09-18T22:06:39.036Z,2.83
2018-09-18T22:09:05.982Z,2.90
2018-09-18T22:11:32.835Z,2.93
2018-09-18T22:13:59.666Z,3.10
2018-09-18T22:16:26.614Z,2.73
2018-09-18T22:18:53.432Z,3.23
2018-09-18T22:21:21.016Z,3.27
2018-09-18T22:23:47.832Z,3.60
2018-09-18T22:26:15.422Z,3.03
2018-09-18T22:28:42.201Z,3.10
2018-09-18T22:31:09.080Z,3.30
2018-09-18T22:33:36.662Z,2.93
2018-09-18T22:36:03.506Z,3.00
2018-09-18T22:38:30.325Z,2.73
2018-09-18T22:40:57.812Z,2.93
2018-09-18T22:43:24.658Z,3.07
2018-09-18T22:45:51.390Z,3.17
2018-09-18T22:48:18.129Z,3.10
2018-09-18T22:50:45.659Z,3.10
2018-09-18T22:53:13.253Z,2.80
2018-09-18T22:55:40.199Z,3.10
2018-09-18T22:58:06.939Z,3.10
2018-09-18T23:00:33.676Z,3.00
2018-09-18T23:03:00.402Z,3.13
2018-09-18T23:05:27.159Z,3.03
2018-09-18T23:07:53.966Z,2.93
2018-09-18T23:10:21.375Z,3.23
2018-09-18T23:12:48.062Z,3.47
2018-09-18T23:15:15.510Z,3.37
2018-09-18T23:17:42.956Z,3.00
2018-09-18T23:20:09.598Z,2.83
2018-09-18T23:22:36.264Z,3.03
2018-09-18T23:25:03.016Z,3.03
2018-09-18T23:27:29.676Z,3.00
2018-09-18T23:29:56.354Z,3.20
2018-09-18T23:32:23.082Z,2.80
2018-09-18T23:34:49.747Z,3.30
2018-09-18T23:37:17.120Z,3.27
2018-09-18T23:39:44.548Z,2.90
2018-09-18T23:42:11.229Z,3.40
2018-09-18T23:44:37.943Z,3.03
2018-09-18T23:47:05.349Z,3.40
2018-09-18T23:49:32.030Z,3.57
2018-09-18T23:51:58.793Z,3.70
2018-09-18T23:54:26.183Z,3.07
2018-09-18T23:56:52.855Z,2.90
2018-09-18T23:59:19.513Z,3.10
